Time;durP1;ratioP1;P1;durP2;ratioP2;P2;SDS_P1;SDS_P2;PMS_P1;PMS_P2;Temp;Humidity;BMP_temperature;BMP_pressure;BME280_temperature;BME280_humidity;BME280_pressure;Samples;Min_cycle;Max_cycle;Signal;HPM_P1;HPM_P2
2022/03/28 00:01:55;;;;;;;;;;;22.00;27.00;;;;;;482272;246;1492;-58
2022/03/28 00:03:57;;;;;;;;;;;22.00;27.00;;;;;;482410;246;1053;-59
2022/03/28 00:05:58;;;;;;;;;;;22.00;27.00;;;;;;482464;246;1079;-59
2022/03/28 00:07:59;;;;;;;;;;;22.00;27.00;;;;;;482366;246;1009;-59
2022/03/28 00:10:01;;;;;;;;;;;22.10;27.00;;;;;;482360;246;1052;-58
2022/03/28 00:12:02;;;;;;;;;;;22.10;26.90;;;;;;482374;246;950;-59
2022/03/28 00:14:03;;;;;;;;;;;22.00;27.00;;;;;;482354;244;1150;-59
2022/03/28 00:16:05;;;;;;;;;;;22.00;27.00;;;;;;482441;246;1105;-59
2022/03/28 00:18:07;;;;;;;;;;;21.90;27.10;;;;;;482349;246;2142;-59
2022/03/28 00:20:09;;;;;;;;;;;21.90;27.10;;;;;;482351;246;1166;-58
2022/03/28 00:22:10;;;;;;;;;;;22.00;27.10;;;;;;482544;246;1061;-58
2022/03/28 00:24:12;;;;;;;;;;;21.90;27.00;;;;;;482356;246;1070;-59
2022/03/28 00:26:13;;;;;;;;;;;21.90;27.10;;;;;;482479;246;1053;-58
2022/03/28 00:28:14;;;;;;;;;;;21.90;27.00;;;;;;482370;246;1058;-59
2022/03/28 00:30:16;;;;;;;;;;;21.80;27.10;;;;;;482503;246;1287;-59
2022/03/28 00:32:17;;;;;;;;;;;21.90;27.00;;;;;;482349;246;1028;-58
2022/03/28 00:34:21;;;;;;;;;;;21.90;27.00;;;;;;482373;246;1047;-58
2022/03/28 00:36:20;;;;;;;;;;;21.90;27.00;;;;;;482289;247;1364;-59
2022/03/28 00:38:21;;;;;;;;;;;22.00;27.00;;;;;;482369;246;2137;-59
2022/03/28 00:40:23;;;;;;;;;;;21.90;27.00;;;;;;482358;246;1077;-59
2022/03/28 00:42:24;;;;;;;;;;;21.90;27.00;;;;;;482280;246;1419;-58
2022/03/28 00:44:25;;;;;;;;;;;21.80;27.10;;;;;;482365;246;1243;-58
2022/03/28 00:46:27;;;;;;;;;;;21.80;27.10;;;;;;482385;246;974;-58
2022/03/28 00:48:28;;;;;;;;;;;21.90;26.90;;;;;;482326;246;1203;-58
2022/03/28 00:50:29;;;;;;;;;;;21.90;27.00;;;;;;482334;246;1060;-59
2022/03/28 00:52:31;;;;;;;;;;;22.00;26.90;;;;;;482361;246;1076;-59
2022/03/28 00:54:32;;;;;;;;;;;21.90;26.90;;;;;;482353;246;954;-59
2022/03/28 00:56:33;;;;;;;;;;;21.90;27.00;;;;;;482309;246;1099;-58
2022/03/28 00:58:35;;;;;;;;;;;21.80;27.00;;;;;;482435;246;2133;-58
2022/03/28 01:00:36;;;;;;;;;;;22.00;26.90;;;;;;482356;246;1194;-59
2022/03/28 01:02:37;;;;;;;;;;;21.90;27.00;;;;;;482479;246;1082;-59
2022/03/28 01:04:39;;;;;;;;;;;22.00;27.00;;;;;;482469;246;1000;-58
2022/03/28 01:06:40;;;;;;;;;;;21.90;27.00;;;;;;482265;246;1104;-58
2022/03/28 01:08:41;;;;;;;;;;;21.90;26.90;;;;;;482480;246;1223;-58
2022/03/28 01:10:43;;;;;;;;;;;21.90;26.90;;;;;;482598;246;1056;-58
2022/03/28 01:12:44;;;;;;;;;;;21.90;27.00;;;;;;482380;246;1087;-59
2022/03/28 01:14:46;;;;;;;;;;;21.90;27.00;;;;;;482608;246;1158;-58
2022/03/28 01:19:07;;;;;;;;;;;21.90;27.00;;;;;;482349;247;2190;-59
2022/03/28 01:21:07;;;;;;;;;;;22.00;26.90;;;;;;482585;246;1136;-59
2022/03/28 01:23:09;;;;;;;;;;;22.00;26.90;;;;;;482449;246;1247;-58
2022/03/28 01:25:10;;;;;;;;;;;21.90;26.90;;;;;;482361;246;1070;-59
2022/03/28 01:27:12;;;;;;;;;;;21.90;27.00;;;;;;482304;246;964;-59
2022/03/28 01:29:13;;;;;;;;;;;21.90;27.00;;;;;;482369;246;1081;-58
2022/03/28 01:31:14;;;;;;;;;;;21.90;26.90;;;;;;482313;246;1167;-59
2022/03/28 01:33:16;;;;;;;;;;;21.90;27.00;;;;;;482346;246;1063;-59
2022/03/28 01:35:17;;;;;;;;;;;21.90;27.00;;;;;;482388;246;995;-58
2022/03/28 01:37:18;;;;;;;;;;;21.90;26.90;;;;;;482352;246;980;-59
2022/03/28 01:39:19;;;;;;;;;;;21.80;27.00;;;;;;482335;246;2129;-59
2022/03/28 01:41:21;;;;;;;;;;;21.80;27.00;;;;;;482357;246;1061;-59
2022/03/28 01:43:23;;;;;;;;;;;21.90;26.90;;;;;;482348;246;1054;-59
2022/03/28 01:45:23;;;;;;;;;;;21.80;27.00;;;;;;482318;246;1572;-58
2022/03/28 01:47:25;;;;;;;;;;;21.70;27.00;;;;;;482298;246;1301;-58
2022/03/28 01:49:26;;;;;;;;;;;21.90;27.00;;;;;;482477;246;1062;-58
2022/03/28 01:51:27;;;;;;;;;;;21.90;27.00;;;;;;482733;246;1059;-59
2022/03/28 01:53:29;;;;;;;;;;;22.00;26.80;;;;;;482335;246;983;-58
2022/03/28 01:55:30;;;;;;;;;;;22.10;26.80;;;;;;482358;246;1066;-59
2022/03/28 01:57:31;;;;;;;;;;;21.80;27.00;;;;;;482304;246;1090;-58
2022/03/28 01:59:33;;;;;;;;;;;21.90;27.00;;;;;;482373;246;2192;-58
2022/03/28 02:01:34;;;;;;;;;;;21.90;27.00;;;;;;482351;246;1190;-59
2022/03/28 02:03:35;;;;;;;;;;;22.00;26.80;;;;;;482474;246;1064;-59
2022/03/28 02:05:37;;;;;;;;;;;21.90;27.00;;;;;;482344;246;1037;-59
2022/03/28 02:07:39;;;;;;;;;;;21.90;27.00;;;;;;482305;246;1087;-58
2022/03/28 02:09:41;;;;;;;;;;;22.00;26.90;;;;;;482345;246;1075;-58
2022/03/28 02:11:42;;;;;;;;;;;21.90;27.00;;;;;;482310;246;1023;-59
2022/03/28 02:13:43;;;;;;;;;;;22.00;26.90;;;;;;482464;246;1139;-58
2022/03/28 02:15:44;;;;;;;;;;;21.90;27.00;;;;;;482593;246;1163;-59
2022/03/28 02:17:45;;;;;;;;;;;21.90;26.90;;;;;;482319;246;1130;-59
2022/03/28 02:19:47;;;;;;;;;;;22.10;26.80;;;;;;482420;246;2114;-58
2022/03/28 02:21:48;;;;;;;;;;;22.00;26.80;;;;;;482412;246;959;-59
2022/03/28 02:23:50;;;;;;;;;;;22.00;26.90;;;;;;482521;246;1049;-59
2022/03/28 02:25:51;;;;;;;;;;;22.00;26.90;;;;;;482370;246;1035;-59
2022/03/28 02:27:53;;;;;;;;;;;21.90;26.90;;;;;;482326;246;1018;-58
2022/03/28 02:29:53;;;;;;;;;;;22.00;26.90;;;;;;482444;246;1317;-58
2022/03/28 02:31:55;;;;;;;;;;;21.90;26.90;;;;;;482408;246;1202;-58
2022/03/28 02:33:56;;;;;;;;;;;21.90;26.90;;;;;;482270;246;1172;-59
2022/03/28 02:35:57;;;;;;;;;;;22.00;26.80;;;;;;482277;246;1077;-59
2022/03/28 02:38:01;;;;;;;;;;;22.10;26.70;;;;;;482490;246;2198;-58
2022/03/28 02:40:01;;;;;;;;;;;22.30;26.50;;;;;;482327;247;1420;-58
2022/03/28 02:42:02;;;;;;;;;;;22.40;26.40;;;;;;482408;246;934;-59
2022/03/28 02:44:04;;;;;;;;;;;22.60;26.20;;;;;;482403;246;1002;-58
2022/03/28 02:46:05;;;;;;;;;;;22.70;26.20;;;;;;482596;246;1169;-59
2022/03/28 02:48:06;;;;;;;;;;;22.90;26.10;;;;;;482457;246;1121;-59
2022/03/28 02:50:08;;;;;;;;;;;23.10;25.80;;;;;;482374;246;1079;-58
2022/03/28 02:52:09;;;;;;;;;;;23.20;25.80;;;;;;482293;246;1620;-59
2022/03/28 02:54:10;;;;;;;;;;;23.30;25.70;;;;;;482438;246;1295;-59
2022/03/28 02:56:12;;;;;;;;;;;23.20;25.70;;;;;;482334;246;1078;-59
2022/03/28 02:58:13;;;;;;;;;;;23.20;25.80;;;;;;482417;246;2200;-59
2022/03/28 03:00:14;;;;;;;;;;;23.20;25.80;;;;;;482352;246;1005;-59
2022/03/28 03:02:16;;;;;;;;;;;23.20;25.80;;;;;;482410;246;1136;-59
2022/03/28 03:04:17;;;;;;;;;;;23.00;26.00;;;;;;482561;246;1055;-59
2022/03/28 03:06:18;;;;;;;;;;;22.90;26.10;;;;;;482464;246;1057;-59
2022/03/28 03:08:20;;;;;;;;;;;22.70;26.30;;;;;;482332;246;1037;-59
2022/03/28 03:10:21;;;;;;;;;;;22.60;26.40;;;;;;482423;246;1056;-59
2022/03/28 03:12:22;;;;;;;;;;;22.50;26.50;;;;;;482359;246;1062;-59
2022/03/28 03:14:24;;;;;;;;;;;22.50;26.50;;;;;;482352;246;1050;-59
2022/03/28 03:16:25;;;;;;;;;;;22.20;26.60;;;;;;482524;246;1118;-58
2022/03/28 03:18:26;;;;;;;;;;;22.20;26.70;;;;;;482405;246;2113;-59
2022/03/28 03:20:27;;;;;;;;;;;22.10;26.80;;;;;;482355;246;1010;-59
2022/03/28 03:22:29;;;;;;;;;;;22.10;26.80;;;;;;482307;246;977;-59
2022/03/28 03:24:31;;;;;;;;;;;22.10;26.80;;;;;;482427;246;1034;-59
2022/03/28 03:26:31;;;;;;;;;;;22.10;26.80;;;;;;482493;246;2240;-59
2022/03/28 03:28:33;;;;;;;;;;;22.20;26.70;;;;;;482310;246;1091;-59
2022/03/28 03:30:34;;;;;;;;;;;22.20;26.70;;;;;;482611;246;998;-58
2022/03/28 03:32:36;;;;;;;;;;;22.10;26.80;;;;;;482348;246;1220;-58
2022/03/28 03:34:37;;;;;;;;;;;22.10;26.70;;;;;;482353;246;1098;-59
2022/03/28 03:36:39;;;;;;;;;;;22.10;26.80;;;;;;482338;246;1112;-59
2022/03/28 03:38:40;;;;;;;;;;;22.10;26.80;;;;;;482301;246;2188;-59
2022/03/28 03:40:41;;;;;;;;;;;22.20;26.70;;;;;;482387;246;1109;-58
2022/03/28 03:42:43;;;;;;;;;;;22.20;26.70;;;;;;482422;246;981;-58
2022/03/28 03:44:44;;;;;;;;;;;22.10;26.60;;;;;;482400;246;1121;-58
2022/03/28 03:46:45;;;;;;;;;;;22.20;26.70;;;;;;482307;246;1171;-59
2022/03/28 03:48:47;;;;;;;;;;;22.10;26.70;;;;;;482361;246;1058;-59
2022/03/28 03:50:48;;;;;;;;;;;22.10;26.70;;;;;;482344;246;1048;-59
2022/03/28 03:52:51;;;;;;;;;;;22.20;26.60;;;;;;482371;246;1048;-58
2022/03/28 03:54:51;;;;;;;;;;;22.20;26.60;;;;;;482198;247;1406;-58
2022/03/28 03:56:52;;;;;;;;;;;22.20;26.60;;;;;;482470;246;946;-59
2022/03/28 03:58:53;;;;;;;;;;;22.10;26.70;;;;;;482305;246;2521;-58
2022/03/28 04:00:55;;;;;;;;;;;22.10;26.60;;;;;;482301;246;1042;-59
2022/03/28 04:02:56;;;;;;;;;;;22.10;26.60;;;;;;482311;246;1597;-58
2022/03/28 04:04:57;;;;;;;;;;;22.10;26.70;;;;;;482466;246;1038;-59
2022/03/28 04:06:59;;;;;;;;;;;22.10;26.70;;;;;;482529;246;1052;-59
2022/03/28 04:09:00;;;;;;;;;;;22.10;26.80;;;;;;482403;246;1073;-59
2022/03/28 04:11:01;;;;;;;;;;;22.10;26.80;;;;;;482219;246;1332;-59
2022/03/28 04:13:03;;;;;;;;;;;22.10;26.70;;;;;;482240;246;1018;-59
2022/03/28 04:15:04;;;;;;;;;;;22.10;26.80;;;;;;482243;246;1231;-59
2022/03/28 04:17:05;;;;;;;;;;;22.10;26.70;;;;;;482285;246;1130;-59
2022/03/28 04:19:07;;;;;;;;;;;22.00;26.80;;;;;;482263;246;2188;-59
2022/03/28 04:21:08;;;;;;;;;;;22.00;26.80;;;;;;482147;246;1091;-59
2022/03/28 04:23:09;;;;;;;;;;;22.10;26.80;;;;;;482215;246;1156;-59
2022/03/28 04:25:11;;;;;;;;;;;22.10;26.80;;;;;;482149;246;1205;-59
2022/03/28 04:27:12;;;;;;;;;;;22.10;26.80;;;;;;482330;246;1097;-59
2022/03/28 04:29:14;;;;;;;;;;;22.10;26.80;;;;;;482156;246;1377;-59
2022/03/28 04:31:15;;;;;;;;;;;22.00;26.90;;;;;;482211;246;1802;-59
2022/03/28 04:33:17;;;;;;;;;;;22.10;26.90;;;;;;482226;246;1196;-59
2022/03/28 04:35:19;;;;;;;;;;;22.10;26.80;;;;;;482176;247;1363;-59
2022/03/28 04:37:19;;;;;;;;;;;22.10;26.80;;;;;;482062;247;1838;-59
2022/03/28 04:39:20;;;;;;;;;;;22.10;26.80;;;;;;482312;246;2117;-59
2022/03/28 04:41:21;;;;;;;;;;;22.00;26.90;;;;;;482212;246;1082;-59
2022/03/28 04:43:23;;;;;;;;;;;22.00;26.90;;;;;;482202;246;1075;-59
2022/03/28 04:45:24;;;;;;;;;;;22.00;26.90;;;;;;482195;246;1152;-59
2022/03/28 04:47:25;;;;;;;;;;;22.10;26.90;;;;;;482113;246;1205;-59
2022/03/28 04:49:27;;;;;;;;;;;22.00;26.80;;;;;;482119;246;997;-59
2022/03/28 04:51:28;;;;;;;;;;;22.10;26.90;;;;;;481981;246;1055;-59
2022/03/28 04:53:30;;;;;;;;;;;22.10;26.90;;;;;;482125;246;1111;-59
2022/03/28 04:55:31;;;;;;;;;;;22.10;26.90;;;;;;482144;246;1107;-59
2022/03/28 04:57:32;;;;;;;;;;;22.10;26.80;;;;;;482095;246;1044;-59
2022/03/28 04:59:34;;;;;;;;;;;22.10;26.80;;;;;;482192;246;2110;-59
2022/03/28 05:01:35;;;;;;;;;;;22.10;26.90;;;;;;482211;246;1113;-59
2022/03/28 05:03:36;;;;;;;;;;;22.10;26.90;;;;;;482090;246;1023;-59
2022/03/28 05:05:38;;;;;;;;;;;22.30;26.70;;;;;;482131;246;1050;-59
2022/03/28 05:07:39;;;;;;;;;;;22.20;26.70;;;;;;482114;246;996;-59
2022/03/28 05:09:40;;;;;;;;;;;22.20;26.70;;;;;;482097;246;1057;-59
2022/03/28 05:11:42;;;;;;;;;;;22.20;26.80;;;;;;482086;246;1182;-59
2022/03/28 05:13:43;;;;;;;;;;;22.20;26.80;;;;;;482106;246;1262;-59
2022/03/28 05:15:44;;;;;;;;;;;22.10;26.80;;;;;;482111;246;1061;-59
2022/03/28 05:17:45;;;;;;;;;;;22.10;26.80;;;;;;482163;246;1202;-60
2022/03/28 05:19:47;;;;;;;;;;;22.00;26.90;;;;;;482080;246;2184;-59
2022/03/28 05:21:49;;;;;;;;;;;22.10;26.80;;;;;;481931;246;1082;-59
2022/03/28 05:23:50;;;;;;;;;;;22.10;26.80;;;;;;481923;246;1080;-59
2022/03/28 05:25:51;;;;;;;;;;;22.10;26.70;;;;;;482011;246;1047;-59
2022/03/28 05:27:52;;;;;;;;;;;22.10;26.80;;;;;;482058;246;962;-59
2022/03/28 05:29:54;;;;;;;;;;;22.10;26.80;;;;;;482100;246;1071;-59
2022/03/28 05:31:55;;;;;;;;;;;22.00;26.80;;;;;;482035;246;1048;-59
2022/03/28 05:33:56;;;;;;;;;;;22.10;26.80;;;;;;481973;246;1120;-59
2022/03/28 05:35:58;;;;;;;;;;;22.10;26.80;;;;;;481894;246;1039;-59
2022/03/28 05:37:59;;;;;;;;;;;22.10;26.80;;;;;;481902;246;1054;-59
2022/03/28 05:40:01;;;;;;;;;;;22.10;26.70;;;;;;481924;246;2188;-59
2022/03/28 05:42:02;;;;;;;;;;;22.20;26.60;;;;;;481753;246;2167;-59
2022/03/28 05:44:03;;;;;;;;;;;22.10;26.90;;;;;;481889;246;1061;-59
2022/03/28 05:46:05;;;;;;;;;;;22.10;26.90;;;;;;481983;246;1061;-59
2022/03/28 05:48:06;;;;;;;;;;;22.00;26.90;;;;;;481970;246;1169;-59
2022/03/28 05:50:08;;;;;;;;;;;22.10;26.80;;;;;;481909;246;1338;-59
2022/03/28 05:52:09;;;;;;;;;;;22.00;26.90;;;;;;481940;246;1066;-59
2022/03/28 05:54:10;;;;;;;;;;;21.90;27.00;;;;;;481896;246;1084;-59
2022/03/28 05:56:11;;;;;;;;;;;22.00;27.00;;;;;;481997;246;1252;-59
2022/03/28 05:58:13;;;;;;;;;;;22.00;26.90;;;;;;481969;246;965;-59
2022/03/28 06:00:14;;;;;;;;;;;22.00;27.00;;;;;;481937;246;2185;-59
2022/03/28 06:02:15;;;;;;;;;;;22.00;27.00;;;;;;481713;246;1181;-59
2022/03/28 06:04:17;;;;;;;;;;;21.90;27.00;;;;;;481905;246;1031;-59
2022/03/28 06:06:18;;;;;;;;;;;22.00;27.00;;;;;;481872;246;1147;-60
2022/03/28 06:08:19;;;;;;;;;;;22.10;26.80;;;;;;482007;246;1394;-59
2022/03/28 06:10:21;;;;;;;;;;;22.10;26.90;;;;;;481905;246;1088;-59
2022/03/28 06:12:22;;;;;;;;;;;22.00;27.00;;;;;;481861;246;1061;-59
2022/03/28 06:14:23;;;;;;;;;;;21.90;27.10;;;;;;482002;246;1103;-59
2022/03/28 06:16:25;;;;;;;;;;;21.90;27.10;;;;;;481883;246;1070;-59
2022/03/28 06:18:26;;;;;;;;;;;21.90;27.10;;;;;;481918;246;1183;-59
2022/03/28 06:20:27;;;;;;;;;;;21.90;27.20;;;;;;481904;246;2189;-59
2022/03/28 06:22:29;;;;;;;;;;;21.90;27.20;;;;;;481746;246;1088;-58
2022/03/28 06:24:30;;;;;;;;;;;21.90;27.20;;;;;;481857;246;1187;-58
2022/03/28 06:26:31;;;;;;;;;;;22.00;27.20;;;;;;481835;246;1016;-59
2022/03/28 06:28:33;;;;;;;;;;;22.00;27.20;;;;;;481861;246;1024;-60
2022/03/28 06:30:34;;;;;;;;;;;22.10;27.20;;;;;;481862;246;1066;-59
2022/03/28 06:32:36;;;;;;;;;;;21.90;27.30;;;;;;481746;246;1106;-59
2022/03/28 06:34:37;;;;;;;;;;;21.90;27.40;;;;;;481717;246;1132;-60
2022/03/28 06:36:39;;;;;;;;;;;21.80;27.50;;;;;;481582;246;1063;-59
2022/03/28 06:38:40;;;;;;;;;;;21.80;27.60;;;;;;481703;246;1103;-59
2022/03/28 06:40:41;;;;;;;;;;;21.90;27.50;;;;;;481714;246;2204;-59
2022/03/28 06:42:42;;;;;;;;;;;21.90;27.60;;;;;;481667;246;1061;-59
2022/03/28 06:44:44;;;;;;;;;;;22.00;27.60;;;;;;481750;246;1084;-59
2022/03/28 06:46:45;;;;;;;;;;;21.90;27.60;;;;;;481640;246;1100;-59
2022/03/28 06:48:47;;;;;;;;;;;22.00;27.70;;;;;;481771;246;1187;-59
2022/03/28 06:50:48;;;;;;;;;;;21.90;27.70;;;;;;481597;246;1231;-59
2022/03/28 06:52:49;;;;;;;;;;;22.00;27.80;;;;;;481531;246;1198;-58
2022/03/28 06:54:50;;;;;;;;;;;22.00;27.70;;;;;;481704;246;1062;-59
2022/03/28 06:56:52;;;;;;;;;;;21.90;27.80;;;;;;481607;246;1085;-59
2022/03/28 06:58:53;;;;;;;;;;;21.90;27.80;;;;;;481767;246;1040;-59
2022/03/28 07:00:54;;;;;;;;;;;21.90;27.90;;;;;;481645;246;2192;-59
2022/03/28 07:02:56;;;;;;;;;;;22.00;28.00;;;;;;481647;246;1327;-59
2022/03/28 07:04:57;;;;;;;;;;;22.00;27.90;;;;;;481556;246;978;-59
2022/03/28 07:06:58;;;;;;;;;;;22.00;28.00;;;;;;481520;246;1074;-59
2022/03/28 07:09:01;;;;;;;;;;;22.00;28.00;;;;;;481705;246;1028;-59
2022/03/28 07:11:02;;;;;;;;;;;22.10;27.90;;;;;;481594;246;1330;-59
2022/03/28 07:13:02;;;;;;;;;;;22.10;28.00;;;;;;481689;246;2336;-59
2022/03/28 07:15:04;;;;;;;;;;;22.00;28.10;;;;;;481578;246;1117;-59
2022/03/28 07:17:05;;;;;;;;;;;22.00;28.20;;;;;;481502;246;1054;-59
2022/03/28 07:19:06;;;;;;;;;;;22.00;28.20;;;;;;481585;246;1176;-59
2022/03/28 07:21:08;;;;;;;;;;;21.90;28.20;;;;;;481509;246;2201;-59
2022/03/28 07:23:09;;;;;;;;;;;22.00;28.10;;;;;;481516;246;1048;-59
2022/03/28 07:25:10;;;;;;;;;;;22.10;28.20;;;;;;481450;246;1110;-59
2022/03/28 07:27:12;;;;;;;;;;;22.00;28.20;;;;;;481681;246;1080;-59
2022/03/28 07:29:14;;;;;;;;;;;22.00;28.30;;;;;;481463;246;1059;-59
2022/03/28 07:31:15;;;;;;;;;;;22.00;28.20;;;;;;481343;246;2172;-59
2022/03/28 07:33:16;;;;;;;;;;;22.00;28.30;;;;;;481395;246;1257;-59
2022/03/28 07:35:17;;;;;;;;;;;22.00;28.20;;;;;;481576;246;1178;-59
2022/03/28 07:37:19;;;;;;;;;;;21.90;28.30;;;;;;481569;246;1373;-59
2022/03/28 07:39:20;;;;;;;;;;;21.90;28.30;;;;;;481597;246;1067;-59
2022/03/28 07:41:21;;;;;;;;;;;21.80;28.50;;;;;;481480;246;2216;-59
2022/03/28 07:43:22;;;;;;;;;;;21.90;28.40;;;;;;481372;246;1055;-58
2022/03/28 07:45:24;;;;;;;;;;;22.00;28.40;;;;;;481149;246;1362;-59
2022/03/28 07:47:25;;;;;;;;;;;21.90;28.50;;;;;;481512;246;1231;-58
2022/03/28 07:49:28;;;;;;;;;;;22.00;28.50;;;;;;481438;246;1199;-59
2022/03/28 07:51:28;;;;;;;;;;;21.90;28.50;;;;;;481390;246;1421;-59
2022/03/28 07:53:29;;;;;;;;;;;22.00;28.60;;;;;;481559;246;1068;-59
2022/03/28 07:55:31;;;;;;;;;;;22.00;28.50;;;;;;481592;246;1111;-59
2022/03/28 07:57:32;;;;;;;;;;;22.00;28.60;;;;;;481541;246;1082;-59
2022/03/28 07:59:33;;;;;;;;;;;22.00;28.50;;;;;;481555;246;1280;-59
2022/03/28 08:01:35;;;;;;;;;;;22.00;28.60;;;;;;481480;246;2188;-59
2022/03/28 08:03:36;;;;;;;;;;;22.00;28.60;;;;;;481413;246;1320;-62
2022/03/28 08:05:37;;;;;;;;;;;22.10;28.60;;;;;;481525;246;1142;-59
2022/03/28 08:07:39;;;;;;;;;;;22.00;28.70;;;;;;481506;246;1353;-58
2022/03/28 08:09:40;;;;;;;;;;;22.10;28.50;;;;;;481534;246;1068;-60
2022/03/28 08:11:42;;;;;;;;;;;22.10;28.70;;;;;;481514;246;986;-59
2022/03/28 08:13:43;;;;;;;;;;;22.00;28.70;;;;;;481595;246;1289;-59
2022/03/28 08:15:44;;;;;;;;;;;21.90;28.80;;;;;;481311;246;1030;-59
2022/03/28 08:17:45;;;;;;;;;;;22.00;28.80;;;;;;481365;246;1046;-59
2022/03/28 08:19:47;;;;;;;;;;;22.00;28.70;;;;;;481399;246;1166;-65
2022/03/28 08:21:48;;;;;;;;;;;21.90;29.00;;;;;;481423;246;2176;-61
2022/03/28 08:23:49;;;;;;;;;;;21.70;29.20;;;;;;481415;246;1143;-60
2022/03/28 08:25:51;;;;;;;;;;;21.90;29.00;;;;;;481343;246;1158;-60
2022/03/28 08:27:52;;;;;;;;;;;21.90;29.00;;;;;;481210;246;1099;-59
2022/03/28 08:29:54;;;;;;;;;;;21.90;28.90;;;;;;481327;246;1084;-60
2022/03/28 08:31:55;;;;;;;;;;;22.00;28.80;;;;;;481390;246;1062;-60
2022/03/28 08:33:56;;;;;;;;;;;22.00;28.90;;;;;;481465;244;1304;-59
2022/03/28 08:35:57;;;;;;;;;;;21.90;28.90;;;;;;481306;246;1048;-60
2022/03/28 08:37:59;;;;;;;;;;;22.00;28.90;;;;;;481281;246;1110;-59
2022/03/28 08:40:00;;;;;;;;;;;22.00;28.90;;;;;;481540;246;1019;-59
2022/03/28 08:42:01;;;;;;;;;;;21.90;28.90;;;;;;481435;246;2196;-59
2022/03/28 08:44:03;;;;;;;;;;;21.90;28.90;;;;;;481574;246;1042;-60
2022/03/28 08:46:04;;;;;;;;;;;21.90;29.00;;;;;;481536;246;1142;-59
2022/03/28 08:48:05;;;;;;;;;;;21.90;29.00;;;;;;481575;246;1043;-59
2022/03/28 08:50:07;;;;;;;;;;;22.10;28.90;;;;;;481426;246;1323;-60
2022/03/28 08:52:08;;;;;;;;;;;22.10;28.80;;;;;;481282;246;1106;-59
2022/03/28 08:54:10;;;;;;;;;;;21.60;29.20;;;;;;481526;246;1052;-59
2022/03/28 08:56:11;;;;;;;;;;;21.60;29.30;;;;;;481550;246;1081;-60
2022/03/28 08:58:12;;;;;;;;;;;21.60;29.40;;;;;;481554;246;1227;-59
2022/03/28 09:00:14;;;;;;;;;;;21.60;29.40;;;;;;481672;246;2113;-59
2022/03/28 09:02:15;;;;;;;;;;;21.60;29.40;;;;;;481399;246;1224;-60
2022/03/28 09:04:16;;;;;;;;;;;21.60;29.40;;;;;;481515;246;1338;-59
2022/03/28 09:06:18;;;;;;;;;;;21.60;29.50;;;;;;481248;246;1045;-59
2022/03/28 09:08:19;;;;;;;;;;;21.60;29.30;;;;;;481416;246;1114;-60
2022/03/28 09:10:21;;;;;;;;;;;21.80;29.30;;;;;;481341;246;1168;-59
2022/03/28 09:12:22;;;;;;;;;;;21.80;29.20;;;;;;481178;246;2234;-59
2022/03/28 09:14:24;;;;;;;;;;;21.90;29.10;;;;;;481421;246;1102;-59
2022/03/28 09:16:29;;;;;;;;;;;21.90;29.20;;;;;;481378;246;1336;-59
2022/03/28 09:18:26;;;;;;;;;;;21.90;29.10;;;;;;481115;247;1393;-60
2022/03/28 09:20:28;;;;;;;;;;;22.00;29.10;;;;;;481379;246;2176;-60
2022/03/28 09:22:29;;;;;;;;;;;21.90;29.10;;;;;;481321;246;1085;-59
2022/03/28 09:24:30;;;;;;;;;;;22.00;29.00;;;;;;480626;246;1068;-60
2022/03/28 09:26:32;;;;;;;;;;;22.00;29.10;;;;;;481330;246;1118;-60
2022/03/28 09:28:33;;;;;;;;;;;21.90;29.10;;;;;;481440;246;1095;-60
2022/03/28 09:30:38;;;;;;;;;;;22.00;29.10;;;;;;481395;246;1099;-59
2022/03/28 09:32:35;;;;;;;;;;;22.00;29.10;;;;;;481226;247;2226;-59
2022/03/28 09:34:37;;;;;;;;;;;22.00;29.00;;;;;;481310;246;1211;-60
2022/03/28 09:36:38;;;;;;;;;;;22.10;29.00;;;;;;481162;246;1092;-60
2022/03/28 09:38:40;;;;;;;;;;;22.00;29.00;;;;;;481292;246;1112;-60
2022/03/28 09:40:41;;;;;;;;;;;21.90;29.00;;;;;;481613;246;2200;-59
2022/03/28 09:42:42;;;;;;;;;;;21.90;29.00;;;;;;481479;246;1128;-60
2022/03/28 09:44:45;;;;;;;;;;;22.00;28.90;;;;;;481417;246;1121;-60
2022/03/28 09:46:45;;;;;;;;;;;22.20;28.70;;;;;;481365;247;1812;-60
2022/03/28 09:48:46;;;;;;;;;;;22.30;28.50;;;;;;481472;246;1071;-59
2022/03/28 09:50:48;;;;;;;;;;;22.50;28.40;;;;;;481498;246;1206;-60
2022/03/28 09:52:49;;;;;;;;;;;22.60;28.30;;;;;;481485;246;1183;-59
2022/03/28 09:54:50;;;;;;;;;;;22.70;28.20;;;;;;481431;246;1458;-60
2022/03/28 09:56:52;;;;;;;;;;;22.80;28.20;;;;;;481511;246;1079;-60
2022/03/28 09:58:59;;;;;;;;;;;22.90;28.10;;;;;;481620;246;1320;-60
2022/03/28 10:00:58;;;;;;;;;;;23.00;28.00;;;;;;481337;247;2196;-59
2022/03/28 10:03:00;;;;;;;;;;;23.00;28.00;;;;;;481514;246;1071;-60
2022/03/28 10:05:01;;;;;;;;;;;23.00;28.00;;;;;;481595;246;1284;-60
2022/03/28 10:07:02;;;;;;;;;;;23.00;28.00;;;;;;481419;246;1129;-59
2022/03/28 10:09:03;;;;;;;;;;;23.00;28.00;;;;;;481523;246;1078;-59
2022/03/28 10:11:05;;;;;;;;;;;22.90;28.00;;;;;;481510;246;1083;-60
2022/03/28 10:13:06;;;;;;;;;;;22.90;28.00;;;;;;481579;246;1105;-59
2022/03/28 10:15:07;;;;;;;;;;;22.80;28.10;;;;;;481314;246;1143;-60
2022/03/28 10:17:09;;;;;;;;;;;22.70;28.20;;;;;;481098;246;1102;-60
2022/03/28 10:19:10;;;;;;;;;;;22.60;28.30;;;;;;481285;246;1080;-60
2022/03/28 10:21:14;;;;;;;;;;;22.70;28.30;;;;;;481280;246;2192;-59
2022/03/28 10:23:13;;;;;;;;;;;22.60;28.40;;;;;;481260;247;1450;-60
2022/03/28 10:25:18;;;;;;;;;;;22.50;28.40;;;;;;481350;246;1120;-60
2022/03/28 10:27:16;;;;;;;;;;;22.50;28.40;;;;;;480858;247;1268;-60
2022/03/28 10:29:17;;;;;;;;;;;22.40;28.40;;;;;;481328;246;1046;-59
2022/03/28 10:31:18;;;;;;;;;;;22.40;28.40;;;;;;481182;246;1119;-59
2022/03/28 10:33:20;;;;;;;;;;;22.40;28.50;;;;;;480849;246;1059;-60
2022/03/28 10:35:21;;;;;;;;;;;22.40;28.50;;;;;;481283;246;1350;-60
2022/03/28 10:37:22;;;;;;;;;;;22.30;28.60;;;;;;481422;246;1094;-60
2022/03/28 10:39:23;;;;;;;;;;;22.30;28.50;;;;;;481577;246;1160;-59
2022/03/28 10:41:25;;;;;;;;;;;22.20;28.60;;;;;;481376;246;2197;-59
2022/03/28 10:43:26;;;;;;;;;;;22.20;28.60;;;;;;481370;246;1108;-60
2022/03/28 10:45:27;;;;;;;;;;;22.20;28.60;;;;;;481502;246;1152;-59
2022/03/28 10:47:29;;;;;;;;;;;22.10;28.70;;;;;;481576;246;1232;-59
2022/03/28 10:49:30;;;;;;;;;;;22.10;28.70;;;;;;481449;246;1058;-60
2022/03/28 10:51:32;;;;;;;;;;;22.20;28.70;;;;;;481068;246;1374;-60
2022/03/28 10:53:37;;;;;;;;;;;22.20;28.70;;;;;;481354;246;1057;-60
2022/03/28 10:55:34;;;;;;;;;;;22.20;28.70;;;;;;481152;247;1333;-59
2022/03/28 10:57:35;;;;;;;;;;;22.20;28.80;;;;;;481588;246;1052;-60
2022/03/28 10:59:37;;;;;;;;;;;22.20;28.80;;;;;;481567;246;1107;-59
2022/03/28 11:01:38;;;;;;;;;;;22.20;28.70;;;;;;481424;246;2184;-59
2022/03/28 11:03:39;;;;;;;;;;;22.20;28.60;;;;;;481508;246;1143;-60
2022/03/28 11:05:41;;;;;;;;;;;22.30;28.50;;;;;;481566;246;1305;-59
2022/03/28 11:07:42;;;;;;;;;;;22.30;28.50;;;;;;481524;246;1084;-60
2022/03/28 11:09:44;;;;;;;;;;;22.30;28.60;;;;;;481583;246;1051;-59
2022/03/28 11:11:45;;;;;;;;;;;22.30;28.70;;;;;;481520;246;1251;-60
2022/03/28 11:13:46;;;;;;;;;;;22.30;28.70;;;;;;481540;246;1063;-60
2022/03/28 11:15:48;;;;;;;;;;;22.30;28.60;;;;;;481542;246;1068;-60
2022/03/28 11:17:49;;;;;;;;;;;22.20;28.60;;;;;;481528;246;1267;-60
2022/03/28 11:19:50;;;;;;;;;;;22.20;28.60;;;;;;481543;246;1100;-60
2022/03/28 11:21:52;;;;;;;;;;;22.30;28.70;;;;;;481488;246;2157;-59
2022/03/28 11:23:53;;;;;;;;;;;22.30;28.70;;;;;;481655;246;1058;-59
2022/03/28 11:25:54;;;;;;;;;;;22.30;28.70;;;;;;481385;246;1092;-60
2022/03/28 11:27:56;;;;;;;;;;;22.30;28.60;;;;;;481349;246;1234;-59
2022/03/28 11:29:57;;;;;;;;;;;22.30;28.70;;;;;;481431;246;1049;-59
2022/03/28 11:31:59;;;;;;;;;;;22.30;28.70;;;;;;481245;246;1077;-60
2022/03/28 11:34:00;;;;;;;;;;;22.20;28.70;;;;;;481314;246;1089;-60
2022/03/28 11:36:02;;;;;;;;;;;22.20;28.70;;;;;;481398;246;1338;-59
2022/03/28 11:38:03;;;;;;;;;;;22.20;28.60;;;;;;481307;246;1104;-60
2022/03/28 11:40:04;;;;;;;;;;;22.20;28.70;;;;;;481561;246;1026;-60
2022/03/28 11:42:06;;;;;;;;;;;22.20;28.60;;;;;;481596;246;2125;-60
2022/03/28 11:44:07;;;;;;;;;;;22.10;28.60;;;;;;481659;246;1139;-60
2022/03/28 11:46:08;;;;;;;;;;;22.20;28.60;;;;;;481394;246;1048;-60
2022/03/28 11:48:10;;;;;;;;;;;22.20;28.60;;;;;;481438;246;1086;-59
2022/03/28 11:50:11;;;;;;;;;;;22.30;28.50;;;;;;481347;246;1222;-60
2022/03/28 11:52:12;;;;;;;;;;;22.30;28.50;;;;;;481398;246;1220;-59
2022/03/28 11:54:16;;;;;;;;;;;22.30;28.50;;;;;;481437;246;1116;-59
2022/03/28 11:56:15;;;;;;;;;;;22.30;28.40;;;;;;481265;247;1384;-60
2022/03/28 11:58:16;;;;;;;;;;;22.40;28.40;;;;;;481545;246;1127;-60
2022/03/28 12:00:18;;;;;;;;;;;22.40;28.40;;;;;;481495;246;1091;-60